createdAt,value
2023-03-07T00:01:09.677Z,-0.32
2023-03-07T00:03:37.058Z,-0.33
2023-03-07T00:06:09.005Z,-0.36
2023-03-07T00:08:36.702Z,-0.38
2023-03-07T00:11:08.811Z,-0.37
2023-03-07T00:13:37.272Z,-0.39
2023-03-07T00:16:06.798Z,-0.42
2023-03-07T00:18:34.400Z,-0.39
2023-03-07T00:21:05.618Z,-0.36
2023-03-07T00:23:34.038Z,-0.37
2023-03-07T00:26:15.467Z,-0.39
2023-03-07T00:28:42.759Z,-0.35
2023-03-07T00:31:16.968Z,-0.37
2023-03-07T00:33:44.648Z,-0.38
2023-03-07T00:36:22.860Z,-0.41
2023-03-07T00:38:50.898Z,-0.47
2023-03-07T00:41:19.688Z,-0.55
2023-03-07T00:43:49.603Z,-0.62
2023-03-07T00:46:18.841Z,-0.68
2023-03-07T00:48:46.771Z,-0.68
2023-03-07T00:51:16.092Z,-0.72
2023-03-07T00:53:43.736Z,-0.68
2023-03-07T00:56:20.074Z,-0.78
2023-03-07T00:58:47.803Z,-0.84
2023-03-07T01:01:19.915Z,-0.83
2023-03-07T01:03:53.136Z,-0.78
2023-03-07T01:06:28.058Z,-0.78
2023-03-07T01:08:57.725Z,-0.81
2023-03-07T01:11:25.911Z,-0.84
2023-03-07T01:13:56.453Z,-0.71
2023-03-07T01:16:26.491Z,-0.76
2023-03-07T01:18:59.638Z,-0.80
2023-03-07T01:21:28.888Z,-0.79
2023-03-07T01:23:56.373Z,-0.64
2023-03-07T01:26:29.703Z,-0.61
2023-03-07T01:28:59.385Z,-0.64
2023-03-07T01:31:26.849Z,-0.72
2023-03-07T01:33:54.818Z,-0.63
2023-03-07T01:36:31.464Z,-0.57
2023-03-07T01:39:02.685Z,-0.57
2023-03-07T01:41:32.247Z,-0.50
2023-03-07T01:44:02.307Z,-0.58
2023-03-07T01:46:33.765Z,-0.50
2023-03-07T01:49:09.426Z,-0.59
2023-03-07T01:51:37.955Z,-0.51
2023-03-07T01:54:06.695Z,-0.47
2023-03-07T01:56:34.953Z,-0.51
2023-03-07T01:59:02.257Z,-0.44
2023-03-07T02:01:29.637Z,-0.47
2023-03-07T02:04:22.965Z,-0.33
2023-03-07T02:06:50.258Z,-0.39
2023-03-07T02:09:19.845Z,-0.31
2023-03-07T02:11:48.284Z,-0.32
2023-03-07T02:14:15.580Z,-0.22
2023-03-07T02:16:43.343Z,-0.17
2023-03-07T02:19:36.074Z,-0.20
2023-03-07T02:22:09.089Z,-0.32
2023-03-07T02:24:43.985Z,-0.24
2023-03-07T02:27:11.280Z,-0.18
2023-03-07T02:29:39.625Z,-0.19
2023-03-07T02:32:07.322Z,-0.15
2023-03-07T02:34:34.633Z,-0.15
2023-03-07T02:37:13.992Z,-0.14
2023-03-07T02:39:42.244Z,-0.06
2023-03-07T02:42:14.761Z,-0.04
2023-03-07T02:44:45.679Z,0.01
2023-03-07T02:47:12.874Z,-0.05
2023-03-07T02:49:40.078Z,-0.09
2023-03-07T02:52:16.393Z,-0.05
2023-03-07T02:54:43.646Z,-0.04
2023-03-07T02:57:10.846Z,-0.10
2023-03-07T02:59:38.148Z,-0.07
2023-03-07T03:02:05.390Z,-0.02
2023-03-07T03:04:32.639Z,-0.07
2023-03-07T03:06:59.957Z,-0.03
2023-03-07T03:09:27.385Z,-0.06
2023-03-07T03:11:54.587Z,-0.03
2023-03-07T03:14:21.868Z,-0.04
2023-03-07T03:16:49.539Z,-0.07
2023-03-07T03:19:16.757Z,-0.04
2023-03-07T03:21:43.943Z,-0.05
2023-03-07T03:24:11.623Z,-0.04
2023-03-07T03:26:39.003Z,-0.03
2023-03-07T03:29:06.590Z,-0.01
2023-03-07T03:31:35.013Z,-0.04
2023-03-07T03:34:02.806Z,0.02
2023-03-07T03:36:29.999Z,0.00
2023-03-07T03:38:58.508Z,0.03
2023-03-07T03:41:26.122Z,0.01
2023-03-07T03:43:53.632Z,0.10
2023-03-07T03:46:20.861Z,0.13
2023-03-07T03:48:53.379Z,0.12
2023-03-07T03:51:20.963Z,0.09
2023-03-07T03:53:48.173Z,0.07
2023-03-07T03:56:18.039Z,0.10
2023-03-07T03:58:48.342Z,0.16
2023-03-07T04:01:15.555Z,0.17
2023-03-07T04:03:45.306Z,0.25
2023-03-07T04:06:21.852Z,0.25
2023-03-07T04:08:49.302Z,0.33
2023-03-07T04:11:17.161Z,0.36
2023-03-07T04:13:44.404Z,0.40
2023-03-07T04:16:11.673Z,0.33
2023-03-07T04:18:40.010Z,0.42
2023-03-07T04:21:07.849Z,0.44
2023-03-07T04:23:34.999Z,0.48
2023-03-07T04:26:04.012Z,0.50
2023-03-07T04:28:46.363Z,0.57
2023-03-07T04:31:16.043Z,0.56
2023-03-07T04:33:43.438Z,0.54
2023-03-07T04:36:11.173Z,0.61
2023-03-07T04:38:39.177Z,0.55
2023-03-07T04:41:07.295Z,0.57
2023-03-07T04:43:34.651Z,0.47
2023-03-07T04:46:02.043Z,0.49
2023-03-07T04:48:29.720Z,0.50
2023-03-07T04:50:56.949Z,0.50
2023-03-07T04:53:24.255Z,0.53
2023-03-07T04:55:51.448Z,0.49
2023-03-07T04:58:18.651Z,0.47
2023-03-07T05:00:46.589Z,0.57
2023-03-07T05:03:14.972Z,0.62
2023-03-07T05:05:42.189Z,0.57
2023-03-07T05:08:09.718Z,0.59
2023-03-07T05:10:37.478Z,0.58
2023-03-07T05:13:04.762Z,0.55
2023-03-07T05:15:33.608Z,0.60
2023-03-07T05:18:00.937Z,0.56
2023-03-07T05:20:29.718Z,0.59
2023-03-07T05:22:57.562Z,0.63
2023-03-07T05:25:24.840Z,0.62
2023-03-07T05:27:52.028Z,0.61
2023-03-07T05:30:21.572Z,0.62
2023-03-07T05:32:48.806Z,0.63
2023-03-07T05:35:16.333Z,0.64
2023-03-07T05:37:43.595Z,0.66
2023-03-07T05:40:11.430Z,0.67
2023-03-07T05:42:38.601Z,0.72
2023-03-07T05:45:06.308Z,0.73
2023-03-07T05:47:33.563Z,0.71
2023-03-07T05:50:00.923Z,0.69
2023-03-07T05:52:29.090Z,0.78
2023-03-07T05:54:56.338Z,0.77
2023-03-07T05:57:24.598Z,0.80
2023-03-07T05:59:51.923Z,0.82
2023-03-07T06:02:19.275Z,0.82
2023-03-07T06:04:47.058Z,0.88
2023-03-07T06:07:14.324Z,0.85
2023-03-07T06:09:41.581Z,0.86
2023-03-07T06:12:10.316Z,0.83
2023-03-07T06:14:37.608Z,0.85
2023-03-07T06:17:05.131Z,0.90
2023-03-07T06:19:32.577Z,0.89
2023-03-07T06:22:01.094Z,0.91
2023-03-07T06:24:28.367Z,0.90
2023-03-07T06:26:55.619Z,0.93
2023-03-07T06:29:22.856Z,0.93
2023-03-07T06:31:51.020Z,0.92
2023-03-07T06:34:18.238Z,0.93
2023-03-07T06:36:45.440Z,0.96
2023-03-07T06:39:13.495Z,1.06
2023-03-07T06:41:40.676Z,1.03
2023-03-07T06:44:08.109Z,1.06
2023-03-07T06:46:35.350Z,1.06
2023-03-07T06:49:02.563Z,1.10
2023-03-07T06:51:29.759Z,1.14
2023-03-07T06:53:57.741Z,1.13
2023-03-07T06:56:25.438Z,1.15
2023-03-07T06:58:52.615Z,1.25
2023-03-07T07:01:21.070Z,1.29
2023-03-07T07:03:48.239Z,1.30
2023-03-07T07:06:15.797Z,1.36
2023-03-07T07:08:43.023Z,1.27
2023-03-07T07:11:10.366Z,1.38
2023-03-07T07:13:37.919Z,1.44
2023-03-07T07:16:08.164Z,1.44
2023-03-07T07:18:35.510Z,1.44
2023-03-07T07:21:03.978Z,1.49
2023-03-07T07:23:31.214Z,1.49
2023-03-07T07:25:58.410Z,1.51
2023-03-07T07:28:25.891Z,1.54
2023-03-07T07:30:53.095Z,1.58
2023-03-07T07:33:20.764Z,1.67
2023-03-07T07:35:48.208Z,1.56
2023-03-07T07:38:15.400Z,1.61
2023-03-07T07:40:42.585Z,1.64
2023-03-07T07:43:17.397Z,1.63
2023-03-07T07:45:44.828Z,1.63
2023-03-07T07:48:12.025Z,1.63
2023-03-07T07:50:39.246Z,1.60
2023-03-07T07:53:06.478Z,1.68
2023-03-07T07:55:33.694Z,1.73
2023-03-07T07:58:00.878Z,1.70
2023-03-07T08:00:28.183Z,1.74
2023-03-07T08:02:55.376Z,1.79
2023-03-07T08:05:23.109Z,1.91
2023-03-07T08:07:50.517Z,1.93
2023-03-07T08:10:18.800Z,1.96
2023-03-07T08:12:51.318Z,1.98
2023-03-07T08:15:21.345Z,1.99
2023-03-07T08:17:52.466Z,1.98
2023-03-07T08:20:22.384Z,2.07
2023-03-07T08:22:50.746Z,2.18
2023-03-07T08:25:21.902Z,2.14
2023-03-07T08:27:53.048Z,2.22
2023-03-07T08:30:23.286Z,2.34
2023-03-07T08:32:51.754Z,2.41
2023-03-07T08:35:19.686Z,2.45
2023-03-07T08:37:49.046Z,2.67
2023-03-07T08:40:16.465Z,2.80
2023-03-07T08:42:44.211Z,2.83
2023-03-07T08:45:11.629Z,2.98
2023-03-07T08:47:38.853Z,2.96
2023-03-07T08:50:06.590Z,2.93
2023-03-07T08:52:33.875Z,2.88
2023-03-07T08:55:01.208Z,3.07
2023-03-07T08:57:28.452Z,3.13
2023-03-07T08:59:56.172Z,3.12
2023-03-07T09:02:23.448Z,3.33
2023-03-07T09:04:50.676Z,3.45
2023-03-07T09:07:19.294Z,3.54
2023-03-07T09:09:46.717Z,3.60
2023-03-07T09:12:14.933Z,3.60
2023-03-07T09:14:42.249Z,3.74
2023-03-07T09:17:09.853Z,3.71
2023-03-07T09:19:37.170Z,3.76
2023-03-07T09:22:04.614Z,4.04
2023-03-07T09:24:32.001Z,4.34
2023-03-07T09:27:01.522Z,4.54
2023-03-07T09:29:28.931Z,4.56
2023-03-07T09:31:56.213Z,4.53
2023-03-07T09:34:23.541Z,4.66
2023-03-07T09:36:52.255Z,4.50
2023-03-07T09:39:19.830Z,4.58
2023-03-07T09:42:08.196Z,4.62
2023-03-07T09:44:43.001Z,4.61
2023-03-07T09:47:33.395Z,4.69
2023-03-07T09:50:02.570Z,4.62
2023-03-07T09:52:33.742Z,4.48
2023-03-07T09:55:06.896Z,4.46
2023-03-07T09:57:56.110Z,4.39
2023-03-07T10:00:30.118Z,4.44
2023-03-07T10:03:25.027Z,4.51
2023-03-07T10:05:53.941Z,4.59
2023-03-07T10:08:29.776Z,4.56
2023-03-07T10:11:08.459Z,4.55
2023-03-07T10:13:57.043Z,4.57
2023-03-07T10:16:31.891Z,4.63
2023-03-07T10:19:03.465Z,4.60
2023-03-07T10:21:46.085Z,4.52
2023-03-07T10:24:22.456Z,4.65
2023-03-07T10:27:08.199Z,4.57
2023-03-07T10:29:53.665Z,4.56
2023-03-07T10:32:46.827Z,4.67
2023-03-07T10:35:15.587Z,4.62
2023-03-07T10:37:54.884Z,4.64
2023-03-07T10:40:26.603Z,4.53
2023-03-07T10:42:54.830Z,4.51
2023-03-07T10:45:22.298Z,4.56
2023-03-07T10:47:49.623Z,4.48
2023-03-07T10:50:33.582Z,4.50
2023-03-07T10:53:02.833Z,4.48
2023-03-07T10:55:41.916Z,4.50
2023-03-07T10:58:21.536Z,4.49
2023-03-07T11:01:08.481Z,4.43
2023-03-07T11:03:54.143Z,4.32
2023-03-07T11:06:44.715Z,4.48
2023-03-07T11:09:16.990Z,4.41
2023-03-07T11:11:55.206Z,4.38
2023-03-07T11:14:22.617Z,4.46
2023-03-07T11:17:00.501Z,4.43
2023-03-07T11:19:43.615Z,4.43
2023-03-07T11:22:23.856Z,4.45
2023-03-07T11:24:56.809Z,4.49
2023-03-07T11:27:30.685Z,4.37
2023-03-07T11:30:19.752Z,4.51
2023-03-07T11:33:18.063Z,4.54
2023-03-07T11:36:07.450Z,4.49
2023-03-07T11:39:00.124Z,4.47
2023-03-07T11:41:37.392Z,4.49
2023-03-07T11:44:25.157Z,4.34
2023-03-07T11:47:06.181Z,4.38
2023-03-07T11:49:45.519Z,4.35
2023-03-07T11:52:17.893Z,4.34
2023-03-07T11:54:59.190Z,4.32
2023-03-07T11:58:04.281Z,4.22
2023-03-07T12:00:34.636Z,4.26
2023-03-07T12:03:09.012Z,4.32
2023-03-07T12:06:12.844Z,4.31
2023-03-07T12:09:07.710Z,4.26
2023-03-07T12:11:57.727Z,4.21
2023-03-07T12:14:40.790Z,4.24
2023-03-07T12:17:14.115Z,3.90
2023-03-07T12:20:05.734Z,3.96
2023-03-07T12:22:54.635Z,4.02
2023-03-07T12:25:37.861Z,3.99
2023-03-07T12:28:12.359Z,3.97
2023-03-07T12:30:53.629Z,3.93
2023-03-07T12:33:50.798Z,3.86
2023-03-07T12:36:25.664Z,3.88
2023-03-07T12:38:58.106Z,3.83
2023-03-07T12:42:01.745Z,3.73
2023-03-07T12:44:34.848Z,3.82
2023-03-07T12:47:41.501Z,3.92
2023-03-07T12:50:22.637Z,3.92
2023-03-07T12:53:08.120Z,3.90
2023-03-07T12:55:45.453Z,3.89
2023-03-07T12:58:43.068Z,3.94
2023-03-07T13:02:00.429Z,3.88
2023-03-07T13:04:44.488Z,3.82
2023-03-07T13:07:24.642Z,3.71
2023-03-07T13:09:56.348Z,3.56
2023-03-07T13:12:37.485Z,3.60
2023-03-07T13:15:07.186Z,3.50
2023-03-07T13:17:35.515Z,3.54
2023-03-07T13:20:15.761Z,3.64
2023-03-07T13:22:43.155Z,3.59
2023-03-07T13:25:31.073Z,3.51
2023-03-07T13:27:59.471Z,3.56
2023-03-07T13:30:27.623Z,3.71
2023-03-07T13:32:55.519Z,3.86
2023-03-07T13:35:29.117Z,3.78
2023-03-07T13:38:00.189Z,3.89
2023-03-07T13:40:35.278Z,3.94
2023-03-07T13:43:04.559Z,3.74
2023-03-07T13:45:37.949Z,3.72
2023-03-07T13:48:36.860Z,3.62
2023-03-07T13:51:08.294Z,3.54
2023-03-07T13:53:44.199Z,3.40
2023-03-07T13:56:17.806Z,3.50
2023-03-07T13:59:06.623Z,3.52
2023-03-07T14:01:40.649Z,3.40
2023-03-07T14:04:40.428Z,3.39
2023-03-07T14:07:40.630Z,3.31
2023-03-07T14:10:22.657Z,3.28
2023-03-07T14:13:05.444Z,3.35
2023-03-07T14:16:10.593Z,3.20
2023-03-07T14:18:52.119Z,3.23
2023-03-07T14:21:33.762Z,3.16
2023-03-07T14:24:21.501Z,3.18
2023-03-07T14:26:59.660Z,3.22
2023-03-07T14:29:30.190Z,3.24
2023-03-07T14:32:03.136Z,3.29
2023-03-07T14:34:35.777Z,3.30
2023-03-07T14:37:13.235Z,3.27
2023-03-07T14:39:59.054Z,3.40
2023-03-07T14:42:38.986Z,3.30
2023-03-07T14:45:39.026Z,3.35
2023-03-07T14:48:31.651Z,3.33
2023-03-07T14:51:09.847Z,3.38
2023-03-07T14:53:46.177Z,3.37
2023-03-07T14:56:46.038Z,3.39
2023-03-07T14:59:28.611Z,3.39
2023-03-07T15:01:57.322Z,3.36
2023-03-07T15:04:27.961Z,3.28
2023-03-07T15:07:11.384Z,3.34
2023-03-07T15:09:38.627Z,3.44
2023-03-07T15:12:07.254Z,3.31
2023-03-07T15:14:47.575Z,3.35
2023-03-07T15:17:23.770Z,3.29
2023-03-07T15:19:55.519Z,3.38
2023-03-07T15:22:27.831Z,3.40
2023-03-07T15:24:55.375Z,3.34
2023-03-07T15:27:37.894Z,3.43
2023-03-07T15:30:07.144Z,3.38
2023-03-07T15:32:41.346Z,3.25
2023-03-07T15:35:09.227Z,3.33
2023-03-07T15:38:07.018Z,3.35
2023-03-07T15:40:36.499Z,3.22
2023-03-07T15:43:04.693Z,3.21
2023-03-07T15:45:40.485Z,3.17
2023-03-07T15:48:16.969Z,3.12
2023-03-07T15:50:44.308Z,3.14
2023-03-07T15:53:27.626Z,3.12
2023-03-07T15:56:05.228Z,3.14
2023-03-07T15:58:33.962Z,3.12
2023-03-07T16:01:21.202Z,2.97
2023-03-07T16:03:57.257Z,3.03
2023-03-07T16:06:38.212Z,3.07
2023-03-07T16:09:06.620Z,3.11
2023-03-07T16:11:36.383Z,3.06
2023-03-07T16:14:05.175Z,3.02
2023-03-07T16:16:32.803Z,2.97
2023-03-07T16:19:00.435Z,3.01
2023-03-07T16:21:28.056Z,2.98
2023-03-07T16:23:55.333Z,2.97
2023-03-07T16:26:24.211Z,2.97
2023-03-07T16:28:52.439Z,2.90
2023-03-07T16:31:20.371Z,2.92
2023-03-07T16:33:48.649Z,2.89
2023-03-07T16:36:16.687Z,2.95
2023-03-07T16:38:43.951Z,2.89
2023-03-07T16:41:15.478Z,2.73
2023-03-07T16:43:42.815Z,2.81
2023-03-07T16:46:16.917Z,2.72
2023-03-07T16:48:44.829Z,2.73
2023-03-07T16:51:18.923Z,2.76
2023-03-07T16:53:47.136Z,2.68
2023-03-07T16:56:19.839Z,2.69
2023-03-07T16:58:47.108Z,2.74
2023-03-07T17:01:14.931Z,2.65
2023-03-07T17:03:42.692Z,2.65
2023-03-07T17:06:17.324Z,2.55
2023-03-07T17:08:45.248Z,2.54
2023-03-07T17:11:18.959Z,2.58
2023-03-07T17:13:47.648Z,2.45
2023-03-07T17:16:16.426Z,2.47
2023-03-07T17:18:44.185Z,2.49
2023-03-07T17:21:19.341Z,2.53
2023-03-07T17:23:46.989Z,2.46
2023-03-07T17:26:27.502Z,2.51
2023-03-07T17:28:55.859Z,2.47
2023-03-07T17:31:23.173Z,2.40
2023-03-07T17:33:50.504Z,2.37
2023-03-07T17:36:17.965Z,2.42
2023-03-07T17:38:46.437Z,2.31
2023-03-07T17:41:13.710Z,2.27
2023-03-07T17:43:40.976Z,2.33
2023-03-07T17:46:09.958Z,2.27
2023-03-07T17:48:39.279Z,2.26
2023-03-07T17:51:10.310Z,2.29
2023-03-07T17:53:38.492Z,2.29
2023-03-07T17:56:10.515Z,2.24
2023-03-07T17:58:38.822Z,2.32
2023-03-07T18:01:11.195Z,2.25
2023-03-07T18:03:39.267Z,2.24
2023-03-07T18:06:06.719Z,2.28
2023-03-07T18:08:34.513Z,2.26
2023-03-07T18:11:10.046Z,2.23
2023-03-07T18:13:37.732Z,2.13
2023-03-07T18:16:05.971Z,2.19
2023-03-07T18:18:40.196Z,2.12
2023-03-07T18:21:16.568Z,2.14
2023-03-07T18:23:44.202Z,2.21
2023-03-07T18:26:14.431Z,2.15
2023-03-07T18:28:43.508Z,2.16
2023-03-07T18:31:15.406Z,2.10
2023-03-07T18:33:43.072Z,2.06
2023-03-07T18:36:14.743Z,2.04
2023-03-07T18:38:42.753Z,2.07
2023-03-07T18:41:17.241Z,2.06
2023-03-07T18:43:44.491Z,2.04
2023-03-07T18:46:14.216Z,2.02
2023-03-07T18:48:41.881Z,2.04
2023-03-07T18:51:11.565Z,2.01
2023-03-07T18:53:39.388Z,2.01
2023-03-07T18:56:12.238Z,1.99
2023-03-07T18:58:40.777Z,2.03
2023-03-07T19:01:19.434Z,1.97
2023-03-07T19:03:48.019Z,1.94
2023-03-07T19:06:16.922Z,1.91
2023-03-07T19:08:44.280Z,1.99
2023-03-07T19:11:13.085Z,1.96
2023-03-07T19:13:40.768Z,1.90
2023-03-07T19:16:11.685Z,1.99
2023-03-07T19:18:39.410Z,1.92
2023-03-07T19:21:14.689Z,1.92
2023-03-07T19:23:42.960Z,1.93
2023-03-07T19:26:12.617Z,1.89
2023-03-07T19:28:40.223Z,1.91
2023-03-07T19:31:11.851Z,1.92
2023-03-07T19:33:39.872Z,1.92
2023-03-07T19:36:09.313Z,1.93
2023-03-07T19:38:36.954Z,1.90
2023-03-07T19:41:10.027Z,1.82
2023-03-07T19:43:37.844Z,1.87
2023-03-07T19:46:09.500Z,1.87
2023-03-07T19:48:39.253Z,1.96
2023-03-07T19:51:15.865Z,1.91
2023-03-07T19:53:44.153Z,1.94
2023-03-07T19:56:13.313Z,2.02
2023-03-07T19:58:40.913Z,1.88
2023-03-07T20:01:10.114Z,1.86
2023-03-07T20:03:37.808Z,1.93
2023-03-07T20:06:06.372Z,1.92
2023-03-07T20:08:34.020Z,1.88
2023-03-07T20:11:16.091Z,1.83
2023-03-07T20:13:45.784Z,1.77
2023-03-07T20:16:15.059Z,1.76
2023-03-07T20:18:42.285Z,1.64
2023-03-07T20:21:14.314Z,1.72
2023-03-07T20:23:44.230Z,1.63
2023-03-07T20:26:20.067Z,1.76
2023-03-07T20:28:47.326Z,1.72
2023-03-07T20:31:15.065Z,1.81
2023-03-07T20:33:47.206Z,1.77
2023-03-07T20:36:26.357Z,1.79
2023-03-07T20:38:55.710Z,1.69
2023-03-07T20:41:23.949Z,1.65
2023-03-07T20:43:52.523Z,1.58
2023-03-07T20:46:21.256Z,1.66
2023-03-07T20:48:48.648Z,1.65
2023-03-07T20:51:18.783Z,1.71
2023-03-07T20:53:46.992Z,1.71
2023-03-07T20:56:14.937Z,1.63
2023-03-07T20:58:43.141Z,1.59
2023-03-07T21:01:11.185Z,1.52
2023-03-07T21:03:38.840Z,1.50
2023-03-07T21:06:06.957Z,1.51
2023-03-07T21:08:35.778Z,1.51
2023-03-07T21:11:09.934Z,1.52
2023-03-07T21:13:40.317Z,1.56
2023-03-07T21:16:10.759Z,1.50
2023-03-07T21:18:38.290Z,1.56
2023-03-07T21:21:10.999Z,1.54
2023-03-07T21:23:38.658Z,1.46
2023-03-07T21:26:23.740Z,1.52
2023-03-07T21:28:51.853Z,1.55
2023-03-07T21:31:21.718Z,1.54
2023-03-07T21:33:53.660Z,1.48
2023-03-07T21:36:21.465Z,1.50
2023-03-07T21:38:49.014Z,1.44
2023-03-07T21:41:19.484Z,1.47
2023-03-07T21:43:46.770Z,1.49
2023-03-07T21:46:14.892Z,1.42
2023-03-07T21:48:42.484Z,1.43
2023-03-07T21:51:09.905Z,1.51
2023-03-07T21:53:38.670Z,1.41
2023-03-07T21:56:08.657Z,1.42
2023-03-07T21:58:38.739Z,1.45
2023-03-07T22:01:20.703Z,1.42
2023-03-07T22:03:48.293Z,1.43
2023-03-07T22:06:16.882Z,1.39
2023-03-07T22:08:45.477Z,1.43
2023-03-07T22:11:13.175Z,1.38
2023-03-07T22:13:41.746Z,1.31
2023-03-07T22:16:12.210Z,1.32
2023-03-07T22:18:39.492Z,1.27
2023-03-07T22:21:14.779Z,1.20
2023-03-07T22:23:42.307Z,1.10
2023-03-07T22:26:10.909Z,1.09
2023-03-07T22:28:38.747Z,1.11
2023-03-07T22:31:08.866Z,1.10
2023-03-07T22:33:37.176Z,1.10
2023-03-07T22:36:06.812Z,1.04
2023-03-07T22:38:34.617Z,1.03
2023-03-07T22:41:06.869Z,1.09
2023-03-07T22:43:37.449Z,1.05
2023-03-07T22:46:05.764Z,1.10
2023-03-07T22:48:33.908Z,1.11
2023-03-07T22:51:01.568Z,1.08
2023-03-07T22:53:30.954Z,1.02
2023-03-07T22:55:59.358Z,0.92
2023-03-07T22:58:27.331Z,0.92
2023-03-07T23:00:54.766Z,0.94
2023-03-07T23:03:23.397Z,0.96
2023-03-07T23:05:51.032Z,0.93
2023-03-07T23:08:18.361Z,0.95
2023-03-07T23:10:45.728Z,0.93
2023-03-07T23:13:13.148Z,0.91
2023-03-07T23:15:41.470Z,0.91
2023-03-07T23:18:09.129Z,0.89
2023-03-07T23:20:39.557Z,0.79
2023-03-07T23:23:09.680Z,0.72
2023-03-07T23:25:41.960Z,0.68
2023-03-07T23:28:10.227Z,0.69
2023-03-07T23:30:38.883Z,0.65
2023-03-07T23:33:09.196Z,0.59
2023-03-07T23:35:36.786Z,0.60
2023-03-07T23:38:04.756Z,0.56
2023-03-07T23:40:32.420Z,0.59
2023-03-07T23:42:59.966Z,0.49
2023-03-07T23:45:27.267Z,0.45
2023-03-07T23:47:54.529Z,0.40
2023-03-07T23:50:21.767Z,0.48
2023-03-07T23:52:48.996Z,0.41
2023-03-07T23:55:17.312Z,0.32
2023-03-07T23:57:45.911Z,0.40
